Terminal Aerodrome Forecast
Issued by NWS

Home | Current Version | Previous Version | Text Only | Print | Product List | Glossary On
Versions: 1 2 3 4 5 6 7 8 9 10 11 12 13 14 15 16 17 18 19 20
000
FTUS44 KBMX 232300 CCA
TAFTOI
TAF COR
KTOI 232339Z 2400/2424 06005KT P6SM SCT060
     FM240900 04005KT 5SM BR BKN012
     FM241400 06010KT P6SM SCT035=

USA.gov is the U.S. government's official web portal to all federal, state and local government web resources and services.